createdAt,value
2023-07-17T00:00:55.979Z,46.22
2023-07-17T00:03:22.628Z,46.83
2023-07-17T00:05:49.443Z,46.32
2023-07-17T00:08:16.034Z,45.83
2023-07-17T00:10:44.435Z,45.71
2023-07-17T00:13:11.333Z,46.13
2023-07-17T00:15:38.066Z,45.67
2023-07-17T00:18:04.795Z,45.78
2023-07-17T00:20:31.458Z,46.42
2023-07-17T00:22:58.126Z,46.64
2023-07-17T00:25:25.044Z,46.06
2023-07-17T00:27:51.618Z,46.78
2023-07-17T00:30:18.247Z,46.21
2023-07-17T00:32:44.961Z,46.28
2023-07-17T00:35:11.607Z,46.22
2023-07-17T00:37:38.259Z,46.67
2023-07-17T00:40:05.239Z,46.56
2023-07-17T00:42:31.933Z,47.19
2023-07-17T00:44:58.572Z,46.59
2023-07-17T00:47:25.213Z,46.73
2023-07-17T00:49:51.862Z,46.73
2023-07-17T00:52:18.538Z,47.05
2023-07-17T00:54:45.216Z,46.30
2023-07-17T00:57:12.666Z,46.08
2023-07-17T00:59:39.433Z,46.71
2023-07-17T01:02:06.137Z,46.50
2023-07-17T01:04:32.747Z,46.29
2023-07-17T01:06:59.382Z,46.69
2023-07-17T01:09:26.065Z,46.78
2023-07-17T01:11:52.720Z,46.70
2023-07-17T01:14:19.605Z,46.59
2023-07-17T01:16:47.141Z,46.29
2023-07-17T01:19:13.810Z,45.97
2023-07-17T01:21:54.472Z,45.95
2023-07-17T01:24:21.195Z,45.90
2023-07-17T01:26:47.910Z,46.43
2023-07-17T01:29:14.513Z,46.09
2023-07-17T01:31:41.148Z,46.15
2023-07-17T01:34:07.882Z,46.10
2023-07-17T01:36:34.633Z,46.04
2023-07-17T01:39:01.277Z,45.56
2023-07-17T01:41:27.891Z,46.51
2023-07-17T01:43:54.526Z,46.26
2023-07-17T01:46:21.186Z,45.84
2023-07-17T01:48:47.918Z,45.57
2023-07-17T01:51:14.697Z,46.15
2023-07-17T01:53:41.459Z,47.10
2023-07-17T01:56:08.088Z,46.43
2023-07-17T01:58:34.673Z,46.73
2023-07-17T02:01:01.268Z,46.69
2023-07-17T02:03:27.990Z,46.52
2023-07-17T02:05:55.091Z,46.13
2023-07-17T02:08:21.741Z,46.94
2023-07-17T02:10:51.920Z,47.01
2023-07-17T02:13:18.580Z,46.78
2023-07-17T02:15:45.621Z,47.99
2023-07-17T02:18:12.278Z,47.36
2023-07-17T02:20:38.903Z,46.82
2023-07-17T02:23:05.863Z,46.75
2023-07-17T02:25:32.608Z,47.19
2023-07-17T02:27:59.415Z,47.17
2023-07-17T02:30:26.041Z,48.17
2023-07-17T02:32:52.747Z,47.42
2023-07-17T02:35:19.529Z,46.67
2023-07-17T02:37:46.196Z,47.10
2023-07-17T02:40:12.894Z,47.01
2023-07-17T02:42:39.750Z,47.01
2023-07-17T02:45:07.728Z,47.52
2023-07-17T02:47:34.453Z,47.69
2023-07-17T02:50:01.111Z,47.92
2023-07-17T02:52:27.725Z,47.85
2023-07-17T02:54:54.483Z,47.73
2023-07-17T02:57:21.087Z,47.77
2023-07-17T02:59:47.674Z,47.72
2023-07-17T03:02:14.304Z,48.03
2023-07-17T03:04:40.948Z,48.25
2023-07-17T03:07:07.651Z,49.44
2023-07-17T03:09:34.252Z,47.73
2023-07-17T03:12:00.885Z,47.47
2023-07-17T03:14:27.525Z,47.96
2023-07-17T03:16:54.149Z,47.91
2023-07-17T03:19:20.877Z,47.70
2023-07-17T03:21:47.512Z,48.15
2023-07-17T03:24:14.171Z,49.88
2023-07-17T03:26:40.852Z,48.65
2023-07-17T03:29:09.515Z,47.90
2023-07-17T03:31:36.204Z,47.80
2023-07-17T03:34:02.820Z,47.97
2023-07-17T03:36:29.458Z,47.48
2023-07-17T03:38:56.105Z,47.90
2023-07-17T03:41:22.757Z,47.68
2023-07-17T03:43:49.390Z,48.11
2023-07-17T03:46:16.020Z,47.97
2023-07-17T03:48:42.604Z,48.57
2023-07-17T03:51:09.259Z,48.51
2023-07-17T03:53:36.359Z,48.34
2023-07-17T03:56:02.956Z,48.26
2023-07-17T03:58:29.556Z,48.61
2023-07-17T04:00:56.187Z,48.11
2023-07-17T04:03:22.962Z,48.40
2023-07-17T04:05:49.636Z,49.26
2023-07-17T04:08:16.272Z,45.56
2023-07-17T04:10:42.935Z,48.22
2023-07-17T04:13:09.544Z,48.44
2023-07-17T04:15:36.470Z,48.41
2023-07-17T04:18:03.185Z,43.96
2023-07-17T04:20:30.008Z,43.24
2023-07-17T04:22:56.732Z,44.04
2023-07-17T04:25:23.393Z,43.70
2023-07-17T04:27:50.057Z,45.63
2023-07-17T04:30:16.764Z,46.88
2023-07-17T04:32:43.440Z,44.10
2023-07-17T04:35:10.349Z,43.92
2023-07-17T04:37:36.946Z,44.37
2023-07-17T04:40:03.664Z,46.93
2023-07-17T04:42:30.318Z,45.28
2023-07-17T04:44:56.892Z,43.21
2023-07-17T04:47:23.484Z,44.52
2023-07-17T04:49:50.806Z,45.04
2023-07-17T04:52:17.474Z,45.69
2023-07-17T04:54:44.076Z,44.40
2023-07-17T04:57:10.745Z,43.98
2023-07-17T04:59:37.401Z,45.71
2023-07-17T05:02:04.263Z,44.34
2023-07-17T05:04:30.959Z,45.51
2023-07-17T05:06:57.625Z,42.80
2023-07-17T05:09:24.210Z,44.74
2023-07-17T05:11:51.209Z,42.96
2023-07-17T05:14:17.806Z,43.08
2023-07-17T05:16:44.606Z,43.35
2023-07-17T05:19:11.197Z,45.30
2023-07-17T05:21:37.761Z,43.62
2023-07-17T05:24:04.421Z,44.81
2023-07-17T05:26:31.028Z,44.62
2023-07-17T05:28:57.613Z,44.74
2023-07-17T05:31:24.277Z,44.82
2023-07-17T05:33:51.845Z,44.48
2023-07-17T05:36:18.449Z,44.77
2023-07-17T05:38:45.099Z,44.82
2023-07-17T05:41:11.768Z,44.46
2023-07-17T05:43:38.408Z,43.95
2023-07-17T05:46:05.035Z,44.55
2023-07-17T05:48:31.651Z,47.40
2023-07-17T05:50:58.284Z,47.57
2023-07-17T05:53:24.909Z,47.43
2023-07-17T05:55:52.263Z,45.65
2023-07-17T05:58:18.846Z,46.98
2023-07-17T06:00:45.535Z,46.29
2023-07-17T06:03:12.163Z,45.64
2023-07-17T06:05:38.879Z,45.73
2023-07-17T06:08:09.001Z,45.95
2023-07-17T06:10:36.204Z,41.74
2023-07-17T06:13:03.182Z,45.11
2023-07-17T06:15:29.801Z,42.46
2023-07-17T06:17:56.489Z,42.71
2023-07-17T06:20:23.148Z,44.90
2023-07-17T06:22:49.942Z,40.07
2023-07-17T06:25:16.698Z,41.21
2023-07-17T06:27:43.314Z,40.67
2023-07-17T06:30:10.437Z,43.56
2023-07-17T06:32:37.124Z,38.08
2023-07-17T06:35:03.914Z,40.16
2023-07-17T06:37:30.564Z,44.37
2023-07-17T06:39:57.205Z,39.08
2023-07-17T06:42:23.868Z,40.60
2023-07-17T06:44:50.712Z,42.71
2023-07-17T06:47:34.120Z,41.64
2023-07-17T06:50:01.372Z,43.55
2023-07-17T06:52:28.021Z,42.58
2023-07-17T06:55:03.898Z,40.70
2023-07-17T06:57:31.888Z,40.16
2023-07-17T06:59:58.648Z,42.75
2023-07-17T07:02:25.332Z,44.77
2023-07-17T07:04:52.230Z,44.44
2023-07-17T07:07:19.575Z,44.85
2023-07-17T07:09:46.739Z,45.57
2023-07-17T07:12:13.563Z,45.61
2023-07-17T07:14:40.244Z,45.88
2023-07-17T07:17:06.882Z,46.44
2023-07-17T07:19:33.554Z,47.13
2023-07-17T07:22:00.233Z,47.46
2023-07-17T07:24:26.915Z,47.91
2023-07-17T07:26:53.503Z,48.29
2023-07-17T07:29:20.105Z,48.25
2023-07-17T07:31:46.795Z,48.40
2023-07-17T07:34:13.455Z,47.78
2023-07-17T07:36:40.050Z,47.07
2023-07-17T07:39:06.698Z,47.25
2023-07-17T07:41:36.699Z,46.86
2023-07-17T07:44:03.402Z,46.72
2023-07-17T07:46:30.175Z,45.01
2023-07-17T07:48:56.880Z,45.82
2023-07-17T07:51:23.563Z,45.71
2023-07-17T07:53:50.298Z,45.50
2023-07-17T07:56:17.515Z,44.57
2023-07-17T07:58:44.456Z,44.40
2023-07-17T08:01:11.095Z,45.05
2023-07-17T08:03:37.762Z,45.36
2023-07-17T08:06:04.434Z,45.97
2023-07-17T08:08:31.073Z,45.07
2023-07-17T08:10:57.798Z,44.53
2023-07-17T08:13:24.693Z,44.39
2023-07-17T08:15:51.328Z,43.91
2023-07-17T08:18:17.945Z,43.38
2023-07-17T08:20:44.538Z,44.62
2023-07-17T08:23:11.350Z,44.78
2023-07-17T08:25:38.420Z,45.26
2023-07-17T08:28:05.129Z,43.64
2023-07-17T08:30:33.816Z,43.68
2023-07-17T08:33:00.498Z,44.23
2023-07-17T08:35:27.203Z,44.37
2023-07-17T08:37:53.849Z,43.84
2023-07-17T08:40:20.552Z,43.18
2023-07-17T08:42:47.327Z,42.59
2023-07-17T08:45:14.297Z,42.71
2023-07-17T08:47:40.951Z,42.34
2023-07-17T08:50:08.140Z,42.86
2023-07-17T08:52:34.747Z,41.64
2023-07-17T08:55:01.392Z,41.54
2023-07-17T08:57:28.067Z,40.84
2023-07-17T08:59:55.457Z,39.86
2023-07-17T09:02:22.260Z,39.18
2023-07-17T09:04:49.031Z,37.85
2023-07-17T09:07:15.640Z,38.70
2023-07-17T09:09:42.257Z,38.78
2023-07-17T09:12:12.169Z,38.34
2023-07-17T09:14:39.342Z,38.08
2023-07-17T09:17:06.693Z,37.18
2023-07-17T09:19:33.325Z,36.89
2023-07-17T09:22:00.422Z,36.53
2023-07-17T09:24:27.859Z,36.85
2023-07-17T09:26:57.520Z,37.36
2023-07-17T09:29:24.683Z,38.35
2023-07-17T09:31:51.353Z,38.34
2023-07-17T09:34:17.968Z,38.19
2023-07-17T09:36:44.609Z,37.37
2023-07-17T09:39:12.773Z,37.40
2023-07-17T09:41:39.415Z,37.83
2023-07-17T09:44:06.857Z,37.78
2023-07-17T09:46:35.218Z,37.70
2023-07-17T09:49:02.224Z,38.55
2023-07-17T09:51:28.973Z,38.53
2023-07-17T09:53:55.615Z,37.99
2023-07-17T09:56:22.269Z,38.69
2023-07-17T09:58:50.178Z,38.91
2023-07-17T10:01:18.010Z,38.63
2023-07-17T10:03:48.942Z,39.58
2023-07-17T10:06:17.882Z,38.69
2023-07-17T10:08:51.313Z,37.22
2023-07-17T10:11:18.451Z,37.93
2023-07-17T10:13:45.849Z,37.31
2023-07-17T10:16:18.614Z,37.43
2023-07-17T10:18:49.836Z,36.83
2023-07-17T10:21:19.554Z,36.72
2023-07-17T10:23:50.316Z,34.69
2023-07-17T10:26:18.125Z,34.64
2023-07-17T10:28:48.626Z,33.71
2023-07-17T10:31:19.967Z,34.77
2023-07-17T10:33:50.563Z,33.87
2023-07-17T10:36:17.268Z,33.52
2023-07-17T10:38:49.345Z,33.71
2023-07-17T10:41:15.837Z,33.69
2023-07-17T10:43:58.681Z,35.03
2023-07-17T10:46:33.079Z,34.47
2023-07-17T10:49:09.864Z,34.32
2023-07-17T10:51:43.616Z,35.05
2023-07-17T10:54:10.220Z,34.91
2023-07-17T10:56:36.813Z,36.03
2023-07-17T10:59:03.448Z,36.08
2023-07-17T11:01:31.614Z,36.34
2023-07-17T11:03:59.545Z,37.19
2023-07-17T11:06:26.632Z,37.03
2023-07-17T11:08:53.779Z,36.20
2023-07-17T11:11:20.830Z,35.52
2023-07-17T11:13:48.225Z,35.39
2023-07-17T11:16:14.952Z,36.24
2023-07-17T11:18:48.735Z,35.03
2023-07-17T11:21:16.158Z,35.71
2023-07-17T11:23:52.297Z,35.65
2023-07-17T11:26:20.930Z,35.60
2023-07-17T11:28:48.519Z,35.55
2023-07-17T11:31:38.856Z,35.18
2023-07-17T11:34:09.368Z,35.09
2023-07-17T11:36:42.670Z,36.48
2023-07-17T11:39:16.329Z,36.30
2023-07-17T11:41:50.236Z,35.26
2023-07-17T11:44:22.618Z,33.46
2023-07-17T11:46:49.210Z,33.31
2023-07-17T11:49:15.935Z,33.65
2023-07-17T11:51:42.602Z,33.72
2023-07-17T11:54:09.322Z,33.62
2023-07-17T11:56:41.524Z,33.84
2023-07-17T11:59:17.709Z,33.26
2023-07-17T12:01:44.331Z,32.02
2023-07-17T12:04:22.196Z,32.91
2023-07-17T12:06:49.224Z,33.72
2023-07-17T12:09:15.950Z,35.18
2023-07-17T12:11:45.722Z,34.18
2023-07-17T12:14:13.851Z,34.50
2023-07-17T12:16:40.531Z,35.23
2023-07-17T12:19:07.360Z,35.23
2023-07-17T12:21:37.777Z,35.89
2023-07-17T12:24:08.624Z,35.48
2023-07-17T12:26:35.886Z,34.04
2023-07-17T12:29:04.053Z,33.77
2023-07-17T12:31:31.211Z,34.32
2023-07-17T12:33:57.882Z,34.62
2023-07-17T12:36:24.527Z,35.21
2023-07-17T12:38:51.172Z,34.71
2023-07-17T12:41:19.728Z,35.01
2023-07-17T12:43:46.645Z,35.06
2023-07-17T12:46:13.350Z,33.43
2023-07-17T12:48:40.080Z,33.39
2023-07-17T12:51:09.735Z,33.66
2023-07-17T12:53:36.332Z,33.68
2023-07-17T12:56:16.864Z,33.90
2023-07-17T12:58:46.352Z,33.83
2023-07-17T13:01:13.092Z,34.55
2023-07-17T13:03:39.992Z,34.48
2023-07-17T13:06:06.871Z,34.25
2023-07-17T13:08:33.508Z,33.88
2023-07-17T13:11:00.151Z,34.44
2023-07-17T13:13:26.844Z,34.02
2023-07-17T13:15:53.540Z,33.95
2023-07-17T13:18:20.284Z,33.14
2023-07-17T13:20:46.966Z,33.20
2023-07-17T13:23:13.577Z,34.50
2023-07-17T13:25:40.216Z,33.50
2023-07-17T13:28:06.882Z,35.11
2023-07-17T13:30:33.542Z,33.94
2023-07-17T13:33:00.313Z,33.26
2023-07-17T13:35:27.021Z,33.38
2023-07-17T13:37:53.685Z,33.23
2023-07-17T13:40:20.703Z,33.04
2023-07-17T13:42:47.371Z,32.64
2023-07-17T13:45:14.045Z,32.82
2023-07-17T13:47:40.704Z,32.46
2023-07-17T13:50:07.840Z,33.48
2023-07-17T13:52:34.634Z,33.42
2023-07-17T13:55:01.289Z,34.52
2023-07-17T13:57:27.881Z,34.04
2023-07-17T13:59:54.524Z,34.97
2023-07-17T14:02:22.165Z,33.56
2023-07-17T14:04:49.228Z,33.11
2023-07-17T14:07:15.797Z,32.99
2023-07-17T14:09:42.389Z,32.29
2023-07-17T14:12:09.141Z,32.14
2023-07-17T14:14:35.744Z,31.50
2023-07-17T14:17:02.307Z,30.60
2023-07-17T14:19:28.981Z,31.01
2023-07-17T14:21:55.602Z,30.62
2023-07-17T14:24:22.277Z,29.32
2023-07-17T14:26:48.896Z,28.98
2023-07-17T14:29:15.686Z,27.79
2023-07-17T14:31:42.489Z,28.11
2023-07-17T14:34:09.217Z,28.08
2023-07-17T14:36:35.862Z,27.11
2023-07-17T14:39:02.623Z,27.77
2023-07-17T14:41:31.290Z,28.39
2023-07-17T14:44:00.160Z,28.66
2023-07-17T14:46:26.885Z,28.54
2023-07-17T14:48:53.638Z,28.22
2023-07-17T14:51:20.221Z,27.96
2023-07-17T14:53:46.846Z,27.05
2023-07-17T14:56:13.459Z,26.55
2023-07-17T14:58:40.103Z,26.71
2023-07-17T15:01:06.712Z,27.77
2023-07-17T15:03:33.429Z,28.30
2023-07-17T15:06:00.178Z,27.32
2023-07-17T15:08:26.796Z,28.88
2023-07-17T15:10:53.442Z,28.92
2023-07-17T15:13:20.087Z,27.13
2023-07-17T15:15:46.761Z,26.38
2023-07-17T15:18:13.394Z,27.42
2023-07-17T15:20:40.009Z,27.91
2023-07-17T15:23:06.628Z,28.42
2023-07-17T15:25:33.256Z,27.56
2023-07-17T15:27:59.871Z,26.57
2023-07-17T15:30:26.525Z,25.41
2023-07-17T15:32:53.611Z,25.00
2023-07-17T15:35:20.277Z,25.18
2023-07-17T15:37:46.989Z,24.61
2023-07-17T15:40:13.758Z,24.78
2023-07-17T15:42:40.662Z,23.42
2023-07-17T15:45:07.898Z,22.30
2023-07-17T15:47:34.623Z,22.30
2023-07-17T15:50:01.279Z,21.40
2023-07-17T15:52:28.102Z,21.94
2023-07-17T15:54:54.750Z,24.13
2023-07-17T15:57:21.363Z,25.56
2023-07-17T15:59:47.936Z,25.20
2023-07-17T16:02:14.517Z,25.82
2023-07-17T16:04:41.203Z,23.12
2023-07-17T16:07:07.904Z,22.08
2023-07-17T16:09:34.498Z,21.46
2023-07-17T16:12:01.160Z,21.89
2023-07-17T16:14:27.835Z,21.92
2023-07-17T16:16:54.640Z,20.42
2023-07-17T16:19:21.479Z,20.89
2023-07-17T16:21:48.088Z,20.30
2023-07-17T16:24:14.814Z,18.69
2023-07-17T16:26:41.491Z,19.26
2023-07-17T16:29:08.162Z,19.57
2023-07-17T16:31:37.515Z,20.47
2023-07-17T16:34:04.428Z,20.73
2023-07-17T16:36:35.467Z,21.46
2023-07-17T16:39:02.085Z,21.73
2023-07-17T16:41:29.024Z,22.99
2023-07-17T16:43:55.620Z,24.63
2023-07-17T16:46:22.411Z,26.10
2023-07-17T16:48:49.128Z,24.14
2023-07-17T16:51:15.772Z,25.26
2023-07-17T16:53:42.707Z,26.57
2023-07-17T16:56:09.351Z,27.33
2023-07-17T16:58:35.938Z,26.37
2023-07-17T17:01:02.705Z,27.48
2023-07-17T17:03:29.576Z,28.35
2023-07-17T17:05:56.372Z,28.18
2023-07-17T17:08:23.138Z,29.63
2023-07-17T17:10:50.782Z,30.97
2023-07-17T17:13:17.404Z,31.67
2023-07-17T17:15:45.793Z,32.34
2023-07-17T17:18:12.758Z,33.08
2023-07-17T17:20:39.476Z,34.54
2023-07-17T17:23:06.104Z,35.29
2023-07-17T17:25:32.704Z,34.72
2023-07-17T17:27:59.337Z,36.59
2023-07-17T17:30:26.027Z,37.24
2023-07-17T17:32:52.806Z,38.01
2023-07-17T17:35:19.478Z,36.02
2023-07-17T17:37:46.094Z,37.37
2023-07-17T17:40:12.684Z,37.48
2023-07-17T17:42:39.279Z,36.95
2023-07-17T17:45:06.372Z,36.83
2023-07-17T17:47:33.439Z,37.82
2023-07-17T17:50:00.141Z,37.68
2023-07-17T17:52:26.864Z,35.92
2023-07-17T17:54:53.546Z,33.11
2023-07-17T17:57:20.158Z,32.74
2023-07-17T17:59:46.845Z,32.46
2023-07-17T18:02:13.534Z,31.92
2023-07-17T18:04:40.299Z,31.33
2023-07-17T18:07:07.017Z,32.62
2023-07-17T18:09:34.118Z,32.16
2023-07-17T18:12:00.800Z,32.36
2023-07-17T18:14:27.477Z,32.25
2023-07-17T18:16:54.135Z,31.57
2023-07-17T18:19:26.399Z,31.94
2023-07-17T18:21:53.103Z,32.59
2023-07-17T18:24:19.821Z,32.17
2023-07-17T18:26:46.465Z,32.71
2023-07-17T18:29:13.220Z,32.71
2023-07-17T18:31:39.933Z,32.21
2023-07-17T18:34:06.638Z,31.93
2023-07-17T18:36:33.214Z,32.16
2023-07-17T18:38:59.841Z,32.89
2023-07-17T18:41:26.450Z,32.43
2023-07-17T18:43:53.298Z,32.49
2023-07-17T18:46:19.925Z,32.26
2023-07-17T18:48:46.544Z,32.77
2023-07-17T18:51:13.192Z,32.81
2023-07-17T18:53:39.813Z,32.95
2023-07-17T18:56:06.417Z,33.16
2023-07-17T18:58:33.139Z,32.91
2023-07-17T19:00:59.783Z,33.29
2023-07-17T19:03:26.417Z,33.40
2023-07-17T19:05:53.058Z,33.32
2023-07-17T19:08:19.746Z,33.61
2023-07-17T19:10:46.388Z,33.32
2023-07-17T19:13:14.572Z,33.64
2023-07-17T19:15:41.711Z,33.54
2023-07-17T19:18:08.468Z,33.76
2023-07-17T19:20:35.144Z,33.27
2023-07-17T19:23:02.014Z,33.21
2023-07-17T19:25:28.702Z,33.33
2023-07-17T19:27:55.348Z,33.68
2023-07-17T19:30:21.975Z,33.49
2023-07-17T19:32:48.623Z,33.76
2023-07-17T19:35:15.288Z,33.92
2023-07-17T19:37:41.970Z,33.97
2023-07-17T19:40:09.205Z,34.23
2023-07-17T19:42:35.794Z,34.37
2023-07-17T19:45:02.756Z,33.96
2023-07-17T19:47:30.225Z,34.44
2023-07-17T19:49:56.885Z,34.28
2023-07-17T19:52:23.465Z,34.50
2023-07-17T19:54:50.547Z,34.46
2023-07-17T19:57:17.200Z,34.30
2023-07-17T19:59:44.418Z,34.18
2023-07-17T20:02:11.091Z,34.96
2023-07-17T20:04:37.790Z,34.62
2023-07-17T20:07:04.537Z,34.86
2023-07-17T20:09:31.125Z,34.82
2023-07-17T20:11:57.715Z,34.35
2023-07-17T20:14:24.376Z,34.83
2023-07-17T20:16:50.976Z,34.59
2023-07-17T20:19:17.851Z,34.71
2023-07-17T20:21:44.713Z,34.84
2023-07-17T20:24:11.366Z,35.07
2023-07-17T20:26:37.949Z,35.23
2023-07-17T20:29:04.553Z,34.96
2023-07-17T20:31:31.209Z,35.18
2023-07-17T20:33:57.877Z,35.49
2023-07-17T20:36:24.627Z,35.79
2023-07-17T20:38:51.223Z,36.03
2023-07-17T20:41:18.033Z,35.87
2023-07-17T20:43:45.038Z,35.80
2023-07-17T20:46:11.799Z,36.11
2023-07-17T20:48:38.450Z,36.37
2023-07-17T20:51:11.749Z,36.20
2023-07-17T20:53:38.348Z,36.45
2023-07-17T20:56:05.451Z,36.29
2023-07-17T20:58:32.796Z,36.57
2023-07-17T21:01:09.536Z,36.55
2023-07-17T21:03:36.331Z,36.53
2023-07-17T21:06:03.311Z,36.59
2023-07-17T21:08:29.903Z,36.27
2023-07-17T21:10:56.850Z,36.87
2023-07-17T21:13:23.807Z,37.03
2023-07-17T21:15:51.326Z,36.97
2023-07-17T21:18:17.946Z,36.82
2023-07-17T21:20:44.576Z,37.02
2023-07-17T21:23:11.371Z,36.96
2023-07-17T21:25:38.743Z,36.90
2023-07-17T21:28:05.467Z,37.32
2023-07-17T21:30:32.124Z,37.24
2023-07-17T21:32:59.164Z,36.99
2023-07-17T21:35:26.304Z,37.20
2023-07-17T21:37:52.911Z,37.20
2023-07-17T21:40:19.528Z,37.08
2023-07-17T21:42:46.150Z,37.00
2023-07-17T21:45:12.816Z,37.10
2023-07-17T21:47:39.556Z,37.05
2023-07-17T21:50:06.842Z,36.79
2023-07-17T21:52:33.515Z,37.21
2023-07-17T21:55:00.666Z,37.27
2023-07-17T21:57:27.260Z,37.06
2023-07-17T21:59:54.091Z,37.59
2023-07-17T22:02:21.024Z,37.34
2023-07-17T22:04:47.644Z,37.11
2023-07-17T22:07:14.317Z,37.48
2023-07-17T22:09:40.971Z,37.57
2023-07-17T22:12:08.241Z,37.64
2023-07-17T22:14:34.868Z,37.68
2023-07-17T22:17:01.653Z,37.74
2023-07-17T22:19:28.393Z,37.85
2023-07-17T22:21:55.912Z,37.91
2023-07-17T22:24:22.502Z,37.72
2023-07-17T22:26:49.191Z,37.27
2023-07-17T22:29:18.841Z,37.34
2023-07-17T22:31:45.486Z,37.56
2023-07-17T22:34:12.107Z,37.33
2023-07-17T22:36:38.724Z,37.35
2023-07-17T22:39:05.385Z,37.24
2023-07-17T22:41:31.984Z,36.93
2023-07-17T22:43:58.677Z,36.95
2023-07-17T22:46:25.292Z,37.32
2023-07-17T22:48:51.999Z,37.20
2023-07-17T22:51:18.928Z,36.86
2023-07-17T22:53:45.697Z,36.85
2023-07-17T22:56:12.343Z,36.80
2023-07-17T22:58:38.923Z,36.92
2023-07-17T23:01:05.571Z,37.02
2023-07-17T23:03:33.457Z,37.13
2023-07-17T23:06:00.399Z,37.41
2023-07-17T23:08:27.111Z,37.25
2023-07-17T23:10:53.746Z,37.20
2023-07-17T23:13:20.330Z,37.31
2023-07-17T23:15:46.908Z,37.29
2023-07-17T23:18:13.508Z,37.84
2023-07-17T23:20:40.228Z,37.89
2023-07-17T23:23:06.936Z,37.95
2023-07-17T23:25:33.547Z,38.77
2023-07-17T23:28:00.261Z,38.36
2023-07-17T23:30:26.851Z,38.46
2023-07-17T23:32:55.878Z,39.68
2023-07-17T23:35:22.672Z,40.15
2023-07-17T23:37:49.398Z,39.79
2023-07-17T23:40:16.058Z,40.06
2023-07-17T23:42:53.848Z,39.92
2023-07-17T23:45:20.478Z,39.99
2023-07-17T23:47:51.000Z,40.58
2023-07-17T23:50:18.229Z,40.34
2023-07-17T23:52:44.797Z,39.90
2023-07-17T23:55:11.427Z,40.02
2023-07-17T23:57:38.012Z,40.43
